Time,TemperatureF,DewpointF,PressureIn,WindDirection,WindDirectionDegrees,WindSpeedMPH,WindSpeedGustMPH,Humidity,HourlyPrecipIn,Conditions,Clouds,dailyrainin,SoftwareType,DateUTC
2013-12-30 00:01:00,35.5,34.0,29.66,NW,310,1.0,2.0,94,0.00,,---,0.00,VWS V14.01,2013-12-30 05:01:00,
2013-12-30 00:02:00,35.5,34.0,29.66,NW,310,0.0,2.0,94,0.00,,---,0.00,VWS V14.01,2013-12-30 05:02:00,
2013-12-30 00:04:00,35.5,33.7,29.66,NW,317,0.0,3.0,93,0.00,,---,0.00,VWS V14.01,2013-12-30 05:04:00,
2013-12-30 00:06:00,35.3,33.5,29.66,West,279,1.0,3.0,93,0.00,,---,0.00,VWS V14.01,2013-12-30 05:06:00,
2013-12-30 00:10:00,35.3,33.5,29.66,WSW,257,0.0,0.0,93,0.00,,---,0.00,VWS V14.01,2013-12-30 05:10:00,
2013-12-30 00:16:00,35.2,33.4,29.66,WSW,257,0.0,1.0,93,0.00,,---,0.00,VWS V14.01,2013-12-30 05:16:00,
2013-12-30 00:21:00,35.2,33.4,29.66,WNW,302,0.0,2.0,93,0.00,,---,0.00,VWS V14.01,2013-12-30 05:21:00,
2013-12-30 00:27:00,35.0,33.2,29.67,WNW,302,0.0,0.0,93,0.00,,---,0.00,VWS V14.01,2013-12-30 05:27:00,
2013-12-30 00:32:00,35.0,33.2,29.67,WNW,302,0.0,0.0,93,0.00,,---,0.00,VWS V14.01,2013-12-30 05:32:00,
2013-12-30 00:37:00,34.9,33.3,29.67,North,350,0.0,0.0,94,0.00,,---,0.00,VWS V14.01,2013-12-30 05:37:00,
2013-12-30 00:42:00,34.9,33.3,29.67,North,350,0.0,0.0,94,0.00,,---,0.00,VWS V14.01,2013-12-30 05:42:00,
2013-12-30 00:47:00,34.9,33.1,29.67,North,350,0.0,0.0,93,0.00,,---,0.00,VWS V14.01,2013-12-30 05:47:00,
2013-12-30 00:52:00,34.7,32.9,29.68,North,350,0.0,0.0,93,0.00,,---,0.00,VWS V14.01,2013-12-30 05:52:00,
2013-12-30 00:57:00,34.7,33.2,29.68,North,360,0.0,0.0,94,0.00,,---,0.00,VWS V14.01,2013-12-30 05:57:00,
2013-12-30 01:02:00,34.7,33.2,29.68,NNE,27,0.0,0.0,94,0.00,,---,0.00,VWS V14.01,2013-12-30 06:02:00,
2013-12-30 01:07:00,34.7,33.2,29.68,NNE,21,0.0,2.0,94,0.00,,---,0.00,VWS V14.01,2013-12-30 06:07:00,
2013-12-30 01:12:00,34.7,32.9,29.69,NNE,21,0.0,0.0,93,0.00,,---,0.00,VWS V14.01,2013-12-30 06:12:00,
2013-12-30 01:17:00,34.7,32.9,29.69,NNE,21,0.0,0.0,93,0.00,,---,0.00,VWS V14.01,2013-12-30 06:17:00,
2013-12-30 01:23:00,34.7,33.2,29.70,NNE,21,0.0,0.0,94,0.00,,---,0.00,VWS V14.01,2013-12-30 06:23:00,
2013-12-30 01:28:00,34.7,33.2,29.70,North,9,0.0,1.0,94,0.00,,---,0.00,VWS V14.01,2013-12-30 06:28:00,
2013-12-30 01:33:00,34.7,32.9,29.70,North,9,0.0,0.0,93,0.00,,---,0.00,VWS V14.01,2013-12-30 06:33:00,
2013-12-30 01:38:00,34.6,32.8,29.70,North,9,0.0,0.0,93,0.00,,---,0.00,VWS V14.01,2013-12-30 06:38:00,
2013-12-30 01:43:00,34.3,32.5,29.71,North,9,0.0,0.0,93,0.00,,---,0.00,VWS V14.01,2013-12-30 06:43:00,
2013-12-30 01:49:00,34.0,32.2,29.70,North,9,0.0,0.0,93,0.00,,---,0.00,VWS V14.01,2013-12-30 06:49:00,
2013-12-30 01:54:00,33.8,32.0,29.71,North,9,0.0,0.0,93,0.00,,---,0.00,VWS V14.01,2013-12-30 06:54:00,
2013-12-30 01:59:00,33.8,32.3,29.71,North,9,0.0,0.0,94,0.00,,---,0.00,VWS V14.01,2013-12-30 06:59:00,
2013-12-30 02:04:00,34.0,32.5,29.72,North,5,0.0,0.0,94,0.00,,---,0.00,VWS V14.01,2013-12-30 07:04:00,
2013-12-30 02:10:00,34.4,32.9,29.73,North,5,0.0,2.0,94,0.00,,---,0.00,VWS V14.01,2013-12-30 07:10:00,
2013-12-30 02:15:00,34.7,33.2,29.73,SSW,211,4.0,5.0,94,0.00,,---,0.00,VWS V14.01,2013-12-30 07:15:00,
2013-12-30 02:20:00,35.2,33.7,29.74,SW,225,0.0,3.0,94,0.00,,---,0.00,VWS V14.01,2013-12-30 07:20:00,
2013-12-30 02:25:00,35.2,33.7,29.73,SW,228,0.0,0.0,94,0.00,,---,0.00,VWS V14.01,2013-12-30 07:25:00,
2013-12-30 02:30:00,35.3,33.8,29.73,SW,228,0.0,0.0,94,0.00,,---,0.00,VWS V14.01,2013-12-30 07:30:00,
2013-12-30 02:35:00,35.3,33.8,29.74,SW,228,0.0,0.0,94,0.00,,---,0.00,VWS V14.01,2013-12-30 07:35:00,
2013-12-30 02:41:00,35.3,33.8,29.74,SW,228,0.0,0.0,94,0.00,,---,0.00,VWS V14.01,2013-12-30 07:41:00,
2013-12-30 02:47:00,35.2,33.7,29.74,SW,228,0.0,0.0,94,0.00,,---,0.00,VWS V14.01,2013-12-30 07:47:00,
2013-12-30 02:52:00,35.2,33.7,29.74,SW,228,0.0,0.0,94,0.00,,---,0.00,VWS V14.01,2013-12-30 07:52:00,
2013-12-30 02:57:00,35.2,33.7,29.75,SW,228,0.0,0.0,94,0.00,,---,0.00,VWS V14.01,2013-12-30 07:57:00,
2013-12-30 03:02:00,35.0,33.5,29.74,SW,228,0.0,0.0,94,0.00,,---,0.00,VWS V14.01,2013-12-30 08:02:00,
2013-12-30 03:07:00,35.0,33.5,29.74,SW,228,0.0,0.0,94,0.00,,---,0.00,VWS V14.01,2013-12-30 08:07:00,
2013-12-30 03:12:00,34.9,33.3,29.75,SW,228,0.0,0.0,94,0.00,,---,0.00,VWS V14.01,2013-12-30 08:12:00,
2013-12-30 03:17:00,34.7,33.2,29.74,SW,228,0.0,0.0,94,0.00,,---,0.00,VWS V14.01,2013-12-30 08:17:00,
2013-12-30 03:22:00,34.7,33.2,29.74,SW,228,0.0,0.0,94,0.00,,---,0.00,VWS V14.01,2013-12-30 08:22:00,
2013-12-30 03:28:00,34.7,33.2,29.74,SW,222,1.0,2.0,94,0.00,,---,0.00,VWS V14.01,2013-12-30 08:28:00,
2013-12-30 03:34:00,35.0,33.5,29.75,SW,215,0.0,0.0,94,0.00,,---,0.00,VWS V14.01,2013-12-30 08:34:00,
2013-12-30 03:39:00,35.2,33.7,29.75,ESE,102,0.0,0.0,94,0.00,,---,0.00,VWS V14.01,2013-12-30 08:39:00,
2013-12-30 03:44:00,35.3,33.8,29.75,ESE,103,0.0,1.0,94,0.00,,---,0.00,VWS V14.01,2013-12-30 08:44:00,
2013-12-30 03:49:00,35.3,33.8,29.75,SE,125,0.0,0.0,94,0.00,,---,0.00,VWS V14.01,2013-12-30 08:49:00,
2013-12-30 03:54:00,35.3,33.8,29.76,SE,125,0.0,0.0,94,0.00,,---,0.00,VWS V14.01,2013-12-30 08:54:00,
2013-12-30 03:59:00,35.2,33.7,29.75,SE,125,0.0,0.0,94,0.00,,---,0.00,VWS V14.01,2013-12-30 08:59:00,
2013-12-30 04:04:00,35.2,33.7,29.75,SE,125,0.0,0.0,94,0.00,,---,0.00,VWS V14.01,2013-12-30 09:04:00,
2013-12-30 04:09:00,35.2,33.7,29.75,SE,125,0.0,0.0,94,0.00,,---,0.00,VWS V14.01,2013-12-30 09:09:00,
2013-12-30 04:14:00,35.2,33.7,29.75,SE,125,0.0,0.0,94,0.00,,---,0.00,VWS V14.01,2013-12-30 09:14:00,
2013-12-30 04:19:00,35.3,33.8,29.75,SE,125,0.0,0.0,94,0.00,,---,0.00,VWS V14.01,2013-12-30 09:19:00,
2013-12-30 04:24:00,35.5,34.0,29.75,SE,125,0.0,0.0,94,0.00,,---,0.00,VWS V14.01,2013-12-30 09:24:00,
2013-12-30 04:30:00,35.5,34.0,29.75,SE,125,0.0,0.0,94,0.00,,---,0.00,VWS V14.01,2013-12-30 09:30:00,
2013-12-30 04:35:00,35.6,34.0,29.74,SE,125,0.0,0.0,94,0.00,,---,0.00,VWS V14.01,2013-12-30 09:35:00,
2013-12-30 04:40:00,35.8,34.2,29.75,SSW,195,0.0,1.0,94,0.00,,---,0.00,VWS V14.01,2013-12-30 09:40:00,
2013-12-30 04:46:00,35.9,34.3,29.75,WSW,246,1.0,1.0,94,0.00,,---,0.00,VWS V14.01,2013-12-30 09:46:00,
2013-12-30 04:51:00,36.0,34.4,29.76,SSE,151,1.0,3.0,94,0.00,,---,0.00,VWS V14.01,2013-12-30 09:51:00,
2013-12-30 04:56:00,36.0,34.2,29.76,SSE,152,0.0,1.0,93,0.00,,---,0.00,VWS V14.01,2013-12-30 09:56:00,
2013-12-30 05:01:00,36.0,34.2,29.76,SSE,152,0.0,2.0,93,0.00,,---,0.00,VWS V14.01,2013-12-30 10:01:00,
2013-12-30 05:06:00,36.3,34.5,29.76,SW,234,0.0,2.0,93,0.00,,---,0.00,VWS V14.01,2013-12-30 10:06:00,
2013-12-30 05:11:00,36.6,34.8,29.76,SW,223,1.0,3.0,93,0.00,,---,0.00,VWS V14.01,2013-12-30 10:11:00,
2013-12-30 05:16:00,36.9,34.8,29.76,SW,216,0.0,2.0,92,0.00,,---,0.00,VWS V14.01,2013-12-30 10:16:00,
2013-12-30 05:21:00,36.9,34.5,29.76,SW,216,1.0,1.0,91,0.00,,---,0.00,VWS V14.01,2013-12-30 10:21:00,
2013-12-30 05:26:00,36.9,34.5,29.77,SW,216,0.0,0.0,91,0.00,,---,0.00,VWS V14.01,2013-12-30 10:26:00,
2013-12-30 05:32:00,36.8,34.2,29.77,SW,216,0.0,0.0,90,0.00,,---,0.00,VWS V14.01,2013-12-30 10:32:00,
2013-12-30 05:38:00,36.8,34.2,29.77,SSW,202,0.0,0.0,90,0.00,,---,0.00,VWS V14.01,2013-12-30 10:38:00,
2013-12-30 05:43:00,36.9,34.2,29.77,SSE,164,0.0,0.0,90,0.00,,---,0.00,VWS V14.01,2013-12-30 10:43:00,
2013-12-30 05:49:00,36.9,34.2,29.77,SSE,164,0.0,0.0,90,0.00,,---,0.00,VWS V14.01,2013-12-30 10:49:00,
2013-12-30 05:54:00,36.8,34.2,29.78,SSE,164,0.0,2.0,90,0.00,,---,0.00,VWS V14.01,2013-12-30 10:54:00,
2013-12-30 05:59:00,36.8,33.9,29.78,SSE,164,0.0,0.0,89,0.00,,---,0.00,VWS V14.01,2013-12-30 10:59:00,
2013-12-30 06:05:00,36.6,33.7,29.78,SSE,164,0.0,0.0,89,0.00,,---,0.00,VWS V14.01,2013-12-30 11:05:00,
2013-12-30 06:10:00,36.3,33.4,29.78,SSE,164,0.0,0.0,89,0.00,,---,0.00,VWS V14.01,2013-12-30 11:10:00,
2013-12-30 06:15:00,36.2,33.3,29.78,SSE,164,0.0,0.0,89,0.00,,---,0.00,VWS V14.01,2013-12-30 11:15:00,
2013-12-30 06:20:00,36.2,33.3,29.79,SSE,164,0.0,0.0,89,0.00,,---,0.00,VWS V14.01,2013-12-30 11:20:00,
2013-12-30 06:25:00,36.2,33.3,29.79,SSE,164,1.0,1.0,89,0.00,,---,0.00,VWS V14.01,2013-12-30 11:25:00,
2013-12-30 06:30:00,36.2,33.3,29.80,South,182,0.0,2.0,89,0.00,,---,0.00,VWS V14.01,2013-12-30 11:30:00,
2013-12-30 06:36:00,36.8,33.6,29.80,South,182,0.0,2.0,88,0.00,,---,0.00,VWS V14.01,2013-12-30 11:36:00,
2013-12-30 06:41:00,36.8,33.3,29.81,South,182,0.0,1.0,87,0.00,,---,0.00,VWS V14.01,2013-12-30 11:41:00,
2013-12-30 06:46:00,36.9,33.4,29.81,South,188,0.0,1.0,87,0.00,,---,0.00,VWS V14.01,2013-12-30 11:46:00,
2013-12-30 06:52:00,37.0,33.2,29.82,SSW,209,0.0,1.0,86,0.00,,---,0.00,VWS V14.01,2013-12-30 11:52:00,
2013-12-30 06:57:00,37.2,33.1,29.82,SSW,196,2.0,2.0,85,0.00,,---,0.00,VWS V14.01,2013-12-30 11:57:00,
2013-12-30 07:02:00,37.0,32.9,29.83,SSW,196,1.0,1.0,85,0.00,,---,0.00,VWS V14.01,2013-12-30 12:02:00,
2013-12-30 07:08:00,36.8,32.7,29.83,SE,146,0.0,1.0,85,0.00,,---,0.00,VWS V14.01,2013-12-30 12:08:00,
2013-12-30 07:13:00,36.6,32.8,29.83,SE,146,1.0,2.0,86,0.00,,---,0.00,VWS V14.01,2013-12-30 12:13:00,
2013-12-30 07:18:00,36.5,32.7,29.83,SE,146,0.0,1.0,86,0.00,,---,0.00,VWS V14.01,2013-12-30 12:18:00,
2013-12-30 07:23:00,36.3,32.5,29.83,SE,146,2.0,2.0,86,0.00,,---,0.00,VWS V14.01,2013-12-30 12:23:00,
2013-12-30 07:28:00,36.3,32.8,29.83,SE,146,0.0,0.0,87,0.00,,---,0.00,VWS V14.01,2013-12-30 12:28:00,
2013-12-30 07:34:00,36.3,32.8,29.83,SE,146,0.0,0.0,87,0.00,,---,0.00,VWS V14.01,2013-12-30 12:34:00,
2013-12-30 07:39:00,36.5,33.0,29.84,SE,146,0.0,0.0,87,0.00,,---,0.00,VWS V14.01,2013-12-30 12:39:00,
2013-12-30 07:44:00,36.6,33.1,29.84,SE,146,0.0,0.0,87,0.00,,---,0.00,VWS V14.01,2013-12-30 12:44:00,
2013-12-30 07:49:00,36.9,33.1,29.84,South,191,2.0,2.0,86,0.00,,---,0.00,VWS V14.01,2013-12-30 12:49:00,
2013-12-30 07:54:00,37.5,33.1,29.85,WSW,254,1.0,3.0,84,0.00,,---,0.00,VWS V14.01,2013-12-30 12:54:00,
2013-12-30 08:00:00,37.9,32.9,29.85,WSW,241,1.0,3.0,82,0.00,,---,0.00,VWS V14.01,2013-12-30 13:00:00,
2013-12-30 08:05:00,38.0,32.7,29.85,SW,230,0.0,2.0,81,0.00,,---,0.00,VWS V14.01,2013-12-30 13:05:00,
2013-12-30 08:10:00,38.2,32.9,29.86,SW,230,2.0,2.0,81,0.00,,---,0.00,VWS V14.01,2013-12-30 13:10:00,
2013-12-30 08:15:00,38.5,32.9,29.86,West,264,2.0,3.0,80,0.00,,---,0.00,VWS V14.01,2013-12-30 13:15:00,
2013-12-30 08:21:00,38.6,32.7,29.87,West,271,2.0,4.0,79,0.00,,---,0.00,VWS V14.01,2013-12-30 13:21:00,
2013-12-30 08:27:00,38.9,32.6,29.87,SSW,195,0.0,2.0,78,0.00,,---,0.00,VWS V14.01,2013-12-30 13:27:00,
2013-12-30 08:32:00,38.9,32.6,29.88,West,275,2.0,3.0,78,0.00,,---,0.00,VWS V14.01,2013-12-30 13:32:00,
2013-12-30 08:37:00,38.9,32.6,29.88,WSW,255,0.0,3.0,78,0.00,,---,0.00,VWS V14.01,2013-12-30 13:37:00,
2013-12-30 08:43:00,39.1,32.8,29.88,West,267,1.0,3.0,78,0.00,,---,0.00,VWS V14.01,2013-12-30 13:43:00,
2013-12-30 08:48:00,39.3,32.4,29.88,WSW,238,2.0,2.0,76,0.00,,---,0.00,VWS V14.01,2013-12-30 13:48:00,
2013-12-30 08:54:00,39.6,32.3,29.89,SW,216,1.0,3.0,75,0.00,,---,0.00,VWS V14.01,2013-12-30 13:54:00,
2013-12-30 08:59:00,39.8,32.5,29.89,WNW,288,0.0,3.0,75,0.00,,---,0.00,VWS V14.01,2013-12-30 13:59:00,
2013-12-30 09:04:00,39.8,32.5,29.89,West,259,2.0,4.0,75,0.00,,---,0.00,VWS V14.01,2013-12-30 14:04:00,
2013-12-30 09:09:00,39.9,32.6,29.89,WSW,250,2.0,4.0,75,0.00,,---,0.00,VWS V14.01,2013-12-30 14:09:00,
2013-12-30 09:14:00,40.1,32.8,29.90,SW,215,1.0,3.0,75,0.00,,---,0.00,VWS V14.01,2013-12-30 14:14:00,
2013-12-30 09:19:00,40.1,32.5,29.90,WSW,250,2.0,5.0,74,0.00,,---,0.00,VWS V14.01,2013-12-30 14:19:00,
2013-12-30 09:24:00,40.2,32.6,29.91,West,262,2.0,2.0,74,0.00,,---,0.00,VWS V14.01,2013-12-30 14:24:00,
2013-12-30 09:29:00,40.2,31.9,29.90,SSW,207,3.0,4.0,72,0.00,,---,0.00,VWS V14.01,2013-12-30 14:29:00,
2013-12-30 09:34:00,40.3,31.7,29.90,SW,214,5.0,5.0,71,0.00,,---,0.00,VWS V14.01,2013-12-30 14:34:00,
2013-12-30 09:39:00,40.3,30.6,29.90,West,267,3.0,6.0,68,0.00,,---,0.00,VWS V14.01,2013-12-30 14:39:00,
2013-12-30 09:44:00,40.5,30.0,29.91,WNW,292,3.0,6.0,66,0.00,,---,0.00,VWS V14.01,2013-12-30 14:44:00,
2013-12-30 09:50:00,40.5,30.0,29.91,West,259,4.0,5.0,66,0.00,,---,0.00,VWS V14.01,2013-12-30 14:50:00,
2013-12-30 09:55:00,40.5,29.7,29.92,SW,231,5.0,6.0,65,0.00,,---,0.00,VWS V14.01,2013-12-30 14:55:00,
2013-12-30 10:00:00,40.5,29.7,29.92,SW,229,3.0,6.0,65,0.00,,---,0.00,VWS V14.01,2013-12-30 15:00:00,
2013-12-30 10:05:00,40.3,29.1,29.92,WNW,302,1.0,5.0,64,0.00,,---,0.00,VWS V14.01,2013-12-30 15:05:00,
2013-12-30 10:10:00,40.3,28.7,29.92,WSW,245,3.0,7.0,63,0.00,,---,0.00,VWS V14.01,2013-12-30 15:10:00,
2013-12-30 10:15:00,40.3,28.7,29.93,West,263,2.0,9.0,63,0.00,,---,0.00,VWS V14.01,2013-12-30 15:15:00,
2013-12-30 10:20:00,40.3,29.1,29.93,WNW,286,2.0,5.0,64,0.00,,---,0.00,VWS V14.01,2013-12-30 15:20:00,
2013-12-30 10:25:00,40.2,28.2,29.93,SW,233,3.0,6.0,62,0.00,,---,0.00,VWS V14.01,2013-12-30 15:25:00,
2013-12-30 10:30:00,40.1,28.5,29.93,WNW,290,3.0,6.0,63,0.00,,---,0.00,VWS V14.01,2013-12-30 15:30:00,
2013-12-30 10:35:00,40.1,28.9,29.93,WNW,293,3.0,5.0,64,0.00,,---,0.00,VWS V14.01,2013-12-30 15:35:00,
2013-12-30 10:40:00,39.9,27.2,29.93,West,268,5.0,7.0,60,0.00,,---,0.00,VWS V14.01,2013-12-30 15:40:00,
2013-12-30 10:45:00,39.8,27.9,29.93,West,273,3.0,6.0,62,0.00,,---,0.00,VWS V14.01,2013-12-30 15:45:00,
2013-12-30 10:50:00,39.6,26.9,29.93,West,281,2.0,7.0,60,0.00,,---,0.00,VWS V14.01,2013-12-30 15:50:00,
2013-12-30 10:55:00,39.8,29.0,29.93,WNW,296,2.0,2.0,65,0.00,,---,0.00,VWS V14.01,2013-12-30 15:55:00,
2013-12-30 11:00:00,39.9,30.6,29.94,NW,322,0.0,1.0,69,0.00,,---,0.00,VWS V14.01,2013-12-30 16:00:00,
2013-12-30 11:06:00,39.8,30.5,29.93,NNW,342,3.0,4.0,69,0.00,,---,0.00,VWS V14.01,2013-12-30 16:06:00,
2013-12-30 11:11:00,39.6,30.6,29.94,NNW,344,2.0,8.0,70,0.00,,---,0.00,VWS V14.01,2013-12-30 16:11:00,
2013-12-30 11:16:00,39.3,30.7,29.94,WNW,294,3.0,3.0,71,0.00,,---,0.00,VWS V14.01,2013-12-30 16:16:00,
2013-12-30 11:21:00,39.1,30.2,29.94,WNW,302,2.0,2.0,70,0.00,,---,0.00,VWS V14.01,2013-12-30 16:21:00,
2013-12-30 11:26:00,38.9,30.0,29.94,NW,314,3.0,4.0,70,0.00,,---,0.00,VWS V14.01,2013-12-30 16:26:00,
2013-12-30 11:31:00,38.6,30.0,29.94,NNE,15,0.0,2.0,71,0.00,,---,0.00,VWS V14.01,2013-12-30 16:31:00,
2013-12-30 11:36:00,38.2,29.3,29.95,WNW,302,4.0,4.0,70,0.00,,---,0.00,VWS V14.01,2013-12-30 16:36:00,
2013-12-30 11:41:00,37.6,28.7,29.94,WNW,300,2.0,4.0,70,0.00,,---,0.00,VWS V14.01,2013-12-30 16:41:00,
2013-12-30 11:46:00,37.0,28.1,29.94,WNW,291,4.0,5.0,70,0.00,,---,0.00,VWS V14.01,2013-12-30 16:46:00,
2013-12-30 11:51:00,36.6,28.1,29.95,WNW,300,0.0,6.0,71,0.00,,---,0.00,VWS V14.01,2013-12-30 16:51:00,
2013-12-30 11:56:00,36.3,27.5,29.95,NNW,344,3.0,3.0,70,0.00,,---,0.00,VWS V14.01,2013-12-30 16:56:00,
2013-12-30 12:01:00,36.0,27.2,29.95,NW,307,2.0,2.0,70,0.00,,---,0.00,VWS V14.01,2013-12-30 17:01:00,
2013-12-30 12:06:00,35.8,26.6,29.95,WNW,295,0.0,2.0,69,0.00,,---,0.00,VWS V14.01,2013-12-30 17:06:00,
2013-12-30 12:11:00,35.6,26.8,29.96,WNW,292,0.0,4.0,70,0.00,,---,0.00,VWS V14.01,2013-12-30 17:11:00,
2013-12-30 12:16:00,35.3,26.5,29.96,WNW,288,2.0,7.0,70,0.00,,---,0.00,VWS V14.01,2013-12-30 17:16:00,
2013-12-30 12:22:00,34.7,25.6,29.96,North,360,5.0,12.0,69,0.00,,---,0.00,VWS V14.01,2013-12-30 17:22:00,
2013-12-30 12:27:00,34.1,25.0,29.96,NW,309,3.0,5.0,69,0.00,,---,0.00,VWS V14.01,2013-12-30 17:27:00,
2013-12-30 12:32:00,33.8,24.7,29.96,WSW,248,5.0,9.0,69,0.00,,---,0.00,VWS V14.01,2013-12-30 17:32:00,
2013-12-30 12:37:00,33.7,25.0,29.96,NW,304,1.0,3.0,70,0.00,,---,0.00,VWS V14.01,2013-12-30 17:37:00,
2013-12-30 12:43:00,33.7,25.0,29.96,WNW,303,2.0,4.0,70,0.00,,---,0.00,VWS V14.01,2013-12-30 17:43:00,
2013-12-30 12:48:00,33.5,24.1,29.96,SE,138,2.0,4.0,68,0.00,,---,0.00,VWS V14.01,2013-12-30 17:48:00,
2013-12-30 12:53:00,33.4,24.0,29.97,NW,318,4.0,6.0,68,0.00,,---,0.00,VWS V14.01,2013-12-30 17:53:00,
2013-12-30 12:58:00,33.2,24.5,29.97,NW,309,3.0,5.0,70,0.00,,---,0.00,VWS V14.01,2013-12-30 17:58:00,
2013-12-30 13:04:00,33.1,23.4,29.98,NW,320,2.0,5.0,67,0.00,,---,0.00,VWS V14.01,2013-12-30 18:04:00,
2013-12-30 13:09:00,32.9,23.5,29.97,WNW,295,0.0,2.0,68,0.00,,---,0.00,VWS V14.01,2013-12-30 18:09:00,
2013-12-30 13:14:00,32.8,23.4,29.98,NNW,333,5.0,5.0,68,0.00,,---,0.00,VWS V14.01,2013-12-30 18:14:00,
2013-12-30 13:19:00,32.7,23.0,29.98,North,355,0.0,9.0,67,0.00,,---,0.00,VWS V14.01,2013-12-30 18:19:00,
2013-12-30 13:24:00,32.5,23.1,29.99,NW,311,2.0,8.0,68,0.00,,---,0.00,VWS V14.01,2013-12-30 18:24:00,
2013-12-30 13:29:00,32.4,23.0,29.99,WNW,286,2.0,3.0,68,0.00,,---,0.00,VWS V14.01,2013-12-30 18:29:00,
2013-12-30 13:34:00,32.4,22.3,29.99,NW,306,2.0,4.0,66,0.00,,---,0.00,VWS V14.01,2013-12-30 18:34:00,
2013-12-30 13:39:00,32.4,22.3,29.99,NW,314,0.0,4.0,66,0.00,,---,0.00,VWS V14.01,2013-12-30 18:39:00,
2013-12-30 13:44:00,32.4,22.3,30.00,NW,308,3.0,4.0,66,0.00,,---,0.00,VWS V14.01,2013-12-30 18:44:00,
2013-12-30 13:49:00,32.2,21.4,30.00,NW,317,2.0,4.0,64,0.00,,---,0.00,VWS V14.01,2013-12-30 18:49:00,
2013-12-30 13:55:00,32.1,21.7,29.99,WNW,286,0.0,3.0,65,0.00,,---,0.00,VWS V14.01,2013-12-30 18:55:00,
2013-12-30 14:02:00,32.1,21.7,29.99,WNW,286,0.0,2.0,65,0.00,,---,0.00,VWS V14.01,2013-12-30 19:02:00,
2013-12-30 14:07:00,32.1,21.7,30.00,NNW,330,1.0,2.0,65,0.00,,---,0.00,VWS V14.01,2013-12-30 19:07:00,
2013-12-30 14:12:00,32.2,21.8,30.00,WNW,296,2.0,2.0,65,0.00,,---,0.00,VWS V14.01,2013-12-30 19:12:00,
2013-12-30 14:17:00,32.2,21.8,30.00,NW,317,1.0,2.0,65,0.00,,---,0.00,VWS V14.01,2013-12-30 19:17:00,
2013-12-30 14:22:00,32.2,21.8,30.00,WNW,300,1.0,4.0,65,0.00,,---,0.00,VWS V14.01,2013-12-30 19:22:00,
2013-12-30 14:27:00,32.2,21.4,30.00,WNW,296,0.0,4.0,64,0.00,,---,0.00,VWS V14.01,2013-12-30 19:27:00,
2013-12-30 14:32:00,32.1,20.9,30.01,NNE,16,1.0,5.0,63,0.00,,---,0.00,VWS V14.01,2013-12-30 19:32:00,
2013-12-30 14:38:00,31.8,19.5,30.01,WNW,302,2.0,7.0,60,0.00,,---,0.00,VWS V14.01,2013-12-30 19:38:00,
2013-12-30 14:43:00,31.3,19.0,30.01,NW,316,2.0,3.0,60,0.00,,---,0.00,VWS V14.01,2013-12-30 19:43:00,
2013-12-30 14:48:00,31.2,19.0,30.02,North,5,3.0,3.0,60,0.00,,---,0.00,VWS V14.01,2013-12-30 19:48:00,
2013-12-30 14:53:00,31.0,19.1,30.02,WNW,289,1.0,1.0,61,0.00,,---,0.00,VWS V14.01,2013-12-30 19:53:00,
2013-12-30 14:59:00,30.9,19.0,30.03,WSW,256,0.0,0.0,61,0.00,,---,0.00,VWS V14.01,2013-12-30 19:59:00,
2013-12-30 15:04:00,30.9,19.4,30.03,NNW,330,0.0,4.0,62,0.00,,---,0.00,VWS V14.01,2013-12-30 20:04:00,
2013-12-30 15:09:00,30.7,18.5,30.03,NW,310,1.0,6.0,60,0.00,,---,0.00,VWS V14.01,2013-12-30 20:09:00,
2013-12-30 15:14:00,30.6,18.0,30.03,NW,324,0.0,1.0,59,0.00,,---,0.00,VWS V14.01,2013-12-30 20:14:00,
2013-12-30 15:19:00,30.4,18.2,30.04,NW,306,0.0,0.0,60,0.00,,---,0.00,VWS V14.01,2013-12-30 20:19:00,
2013-12-30 15:25:00,30.1,17.5,30.05,NW,325,2.0,2.0,59,0.00,,---,0.00,VWS V14.01,2013-12-30 20:25:00,
2013-12-30 15:30:00,29.8,17.2,30.05,NW,317,3.0,5.0,59,0.00,,---,0.00,VWS V14.01,2013-12-30 20:30:00,
2013-12-30 15:36:00,29.5,17.0,30.05,NNW,328,0.0,2.0,59,0.00,,---,0.00,VWS V14.01,2013-12-30 20:36:00,
2013-12-30 15:41:00,29.4,16.9,30.06,NNW,337,0.0,1.0,59,0.00,,---,0.00,VWS V14.01,2013-12-30 20:41:00,
2013-12-30 15:46:00,29.3,16.8,30.06,WNW,296,3.0,3.0,59,0.00,,---,0.00,VWS V14.01,2013-12-30 20:46:00,
2013-12-30 15:51:00,29.1,15.8,30.07,West,275,2.0,5.0,57,0.00,,---,0.00,VWS V14.01,2013-12-30 20:51:00,
2013-12-30 15:56:00,28.8,15.5,30.06,NNE,25,4.0,6.0,57,0.00,,---,0.00,VWS V14.01,2013-12-30 20:56:00,
2013-12-30 16:02:00,28.7,15.4,30.07,ENE,71,2.0,4.0,57,0.00,,---,0.00,VWS V14.01,2013-12-30 21:02:00,
2013-12-30 16:07:00,28.5,15.2,30.07,WSW,238,3.0,6.0,57,0.00,,---,0.00,VWS V14.01,2013-12-30 21:07:00,
2013-12-30 16:12:00,28.4,15.1,30.07,WNW,298,2.0,2.0,57,0.00,,---,0.00,VWS V14.01,2013-12-30 21:12:00,
2013-12-30 16:17:00,28.2,15.3,30.07,WNW,300,0.0,2.0,58,0.00,,---,0.00,VWS V14.01,2013-12-30 21:17:00,
2013-12-30 16:22:00,28.1,14.4,30.08,NNW,348,3.0,3.0,56,0.00,,---,0.00,VWS V14.01,2013-12-30 21:22:00,
2013-12-30 16:27:00,27.9,14.2,30.09,NW,314,3.0,4.0,56,0.00,,---,0.00,VWS V14.01,2013-12-30 21:27:00,
2013-12-30 16:32:00,27.8,13.8,30.09,WNW,283,1.0,3.0,55,0.00,,---,0.00,VWS V14.01,2013-12-30 21:32:00,
2013-12-30 16:37:00,27.6,14.0,30.09,WNW,295,3.0,3.0,56,0.00,,---,0.00,VWS V14.01,2013-12-30 21:37:00,
2013-12-30 16:42:00,27.3,13.3,30.09,WNW,301,0.0,4.0,55,0.00,,---,0.00,VWS V14.01,2013-12-30 21:42:00,
2013-12-30 16:47:00,27.2,13.6,30.09,WNW,282,3.0,3.0,56,0.00,,---,0.00,VWS V14.01,2013-12-30 21:47:00,
2013-12-30 16:52:00,27.0,13.4,30.09,WNW,300,2.0,2.0,56,0.00,,---,0.00,VWS V14.01,2013-12-30 21:52:00,
2013-12-30 16:57:00,26.9,13.3,30.09,NW,305,2.0,6.0,56,0.00,,---,0.00,VWS V14.01,2013-12-30 21:57:00,
2013-12-30 17:03:00,26.7,13.1,30.09,WNW,283,3.0,4.0,56,0.00,,---,0.00,VWS V14.01,2013-12-30 22:03:00,
2013-12-30 17:08:00,26.4,12.8,30.09,WNW,287,0.0,1.0,56,0.00,,---,0.00,VWS V14.01,2013-12-30 22:08:00,
2013-12-30 17:13:00,26.3,12.3,30.10,NNE,17,2.0,4.0,55,0.00,,---,0.00,VWS V14.01,2013-12-30 22:13:00,
2013-12-30 17:18:00,26.1,12.2,30.10,NNW,332,2.0,3.0,55,0.00,,---,0.00,VWS V14.01,2013-12-30 22:18:00,
2013-12-30 17:23:00,26.0,12.1,30.10,WNW,302,2.0,2.0,55,0.00,,---,0.00,VWS V14.01,2013-12-30 22:23:00,
2013-12-30 17:29:00,25.7,12.2,30.10,WNW,302,0.0,0.0,56,0.00,,---,0.00,VWS V14.01,2013-12-30 22:29:00,
2013-12-30 17:34:00,25.6,12.5,30.10,NNW,331,1.0,2.0,57,0.00,,---,0.00,VWS V14.01,2013-12-30 22:34:00,
2013-12-30 17:39:00,25.4,12.7,30.11,North,350,1.0,2.0,58,0.00,,---,0.00,VWS V14.01,2013-12-30 22:39:00,
2013-12-30 17:44:00,25.3,12.6,30.11,WNW,299,0.0,2.0,58,0.00,,---,0.00,VWS V14.01,2013-12-30 22:44:00,
2013-12-30 17:49:00,25.1,12.4,30.11,WNW,298,5.0,7.0,58,0.00,,---,0.00,VWS V14.01,2013-12-30 22:49:00,
2013-12-30 17:55:00,24.8,12.1,30.11,WNW,298,4.0,4.0,58,0.00,,---,0.00,VWS V14.01,2013-12-30 22:55:00,
2013-12-30 18:00:00,24.5,11.9,30.12,WNW,289,1.0,4.0,58,0.00,,---,0.00,VWS V14.01,2013-12-30 23:00:00,
2013-12-30 18:05:00,24.4,11.8,30.12,NNW,328,3.0,5.0,58,0.00,,---,0.00,VWS V14.01,2013-12-30 23:05:00,
2013-12-30 18:10:00,24.1,11.5,30.12,North,355,1.0,6.0,58,0.00,,---,0.00,VWS V14.01,2013-12-30 23:10:00,
2013-12-30 18:15:00,23.9,11.7,30.12,NW,312,0.0,3.0,59,0.00,,---,0.00,VWS V14.01,2013-12-30 23:15:00,
2013-12-30 18:20:00,23.8,11.2,30.13,NNW,338,1.0,6.0,58,0.00,,---,0.00,VWS V14.01,2013-12-30 23:20:00,
2013-12-30 18:26:00,23.6,11.4,30.13,NNW,336,0.0,0.0,59,0.00,,---,0.00,VWS V14.01,2013-12-30 23:26:00,
2013-12-30 18:31:00,23.5,11.3,30.12,WNW,300,2.0,5.0,59,0.00,,---,0.00,VWS V14.01,2013-12-30 23:31:00,
2013-12-30 18:37:00,23.3,10.7,30.13,NE,38,5.0,5.0,58,0.00,,---,0.00,VWS V14.01,2013-12-30 23:37:00,
2013-12-30 18:42:00,23.2,11.0,30.13,NNW,327,2.0,3.0,59,0.00,,---,0.00,VWS V14.01,2013-12-30 23:42:00,
2013-12-30 18:47:00,23.0,10.8,30.13,WNW,295,0.0,4.0,59,0.00,,---,0.00,VWS V14.01,2013-12-30 23:47:00,
2013-12-30 18:52:00,22.9,10.7,30.13,NW,306,0.0,2.0,59,0.00,,---,0.00,VWS V14.01,2013-12-30 23:52:00,
2013-12-30 18:58:00,22.7,10.5,30.13,NNW,332,2.0,4.0,59,0.00,,---,0.00,VWS V14.01,2013-12-30 23:58:00,
2013-12-30 19:03:00,22.4,10.3,30.14,WNW,290,2.0,4.0,59,0.00,,---,0.00,VWS V14.01,2013-12-31 00:03:00,
2013-12-30 19:08:00,22.2,10.1,30.14,WNW,290,0.0,3.0,59,0.00,,---,0.00,VWS V14.01,2013-12-31 00:08:00,
2013-12-30 19:13:00,22.1,10.0,30.14,NW,319,0.0,2.0,59,0.00,,---,0.00,VWS V14.01,2013-12-31 00:13:00,
2013-12-30 19:18:00,21.9,9.8,30.14,WNW,285,0.0,1.0,59,0.00,,---,0.00,VWS V14.01,2013-12-31 00:18:00,
2013-12-30 19:23:00,21.8,9.7,30.15,North,350,0.0,1.0,59,0.00,,---,0.00,VWS V14.01,2013-12-31 00:23:00,
2013-12-30 19:28:00,21.6,9.9,30.15,NNW,346,0.0,0.0,60,0.00,,---,0.00,VWS V14.01,2013-12-31 00:28:00,
2013-12-30 19:33:00,21.4,9.7,30.15,NNE,29,1.0,2.0,60,0.00,,---,0.00,VWS V14.01,2013-12-31 00:33:00,
2013-12-30 19:38:00,21.3,9.2,30.15,WNW,288,3.0,3.0,59,0.00,,---,0.00,VWS V14.01,2013-12-31 00:38:00,
2013-12-30 19:43:00,21.1,9.4,30.15,NW,325,0.0,3.0,60,0.00,,---,0.00,VWS V14.01,2013-12-31 00:43:00,
2013-12-30 19:48:00,21.0,8.6,30.15,WNW,289,0.0,3.0,58,0.00,,---,0.00,VWS V14.01,2013-12-31 00:48:00,
2013-12-30 19:53:00,20.8,8.4,30.16,NW,326,0.0,5.0,58,0.00,,---,0.00,VWS V14.01,2013-12-31 00:53:00,
2013-12-30 19:58:00,20.6,8.2,30.15,NW,313,0.0,3.0,58,0.00,,---,0.00,VWS V14.01,2013-12-31 00:58:00,
2013-12-30 20:03:00,20.5,7.7,30.16,NNW,345,1.0,4.0,57,0.00,,---,0.00,VWS V14.01,2013-12-31 01:03:00,
2013-12-30 20:08:00,20.3,7.9,30.16,NNW,329,2.0,5.0,58,0.00,,---,0.00,VWS V14.01,2013-12-31 01:08:00,
2013-12-30 20:13:00,20.3,7.9,30.16,NW,313,0.0,3.0,58,0.00,,---,0.00,VWS V14.01,2013-12-31 01:13:00,
2013-12-30 20:18:00,20.2,8.2,30.16,NW,313,2.0,3.0,59,0.00,,---,0.00,VWS V14.01,2013-12-31 01:18:00,
2013-12-30 20:23:00,20.0,8.0,30.16,NW,313,2.0,2.0,59,0.00,,---,0.00,VWS V14.01,2013-12-31 01:23:00,
2013-12-30 20:28:00,19.9,7.9,30.16,WNW,286,0.0,2.0,59,0.00,,---,0.00,VWS V14.01,2013-12-31 01:28:00,
2013-12-30 20:33:00,19.7,8.1,30.16,West,273,0.0,2.0,60,0.00,,---,0.00,VWS V14.01,2013-12-31 01:33:00,
2013-12-30 20:39:00,19.5,7.5,30.15,NW,316,2.0,4.0,59,0.00,,---,0.00,VWS V14.01,2013-12-31 01:39:00,
2013-12-30 20:44:00,19.5,7.9,30.15,West,274,2.0,4.0,60,0.00,,---,0.00,VWS V14.01,2013-12-31 01:44:00,
2013-12-30 20:49:00,19.4,8.2,30.15,NW,317,1.0,2.0,61,0.00,,---,0.00,VWS V14.01,2013-12-31 01:49:00,
2013-12-30 20:54:00,19.4,8.2,30.16,WNW,291,0.0,0.0,61,0.00,,---,0.00,VWS V14.01,2013-12-31 01:54:00,
2013-12-30 20:59:00,19.2,8.0,30.16,WNW,294,0.0,2.0,61,0.00,,---,0.00,VWS V14.01,2013-12-31 01:59:00,
2013-12-30 21:05:00,19.1,7.9,30.17,NW,304,0.0,5.0,61,0.00,,---,0.00,VWS V14.01,2013-12-31 02:05:00,
2013-12-30 21:10:00,19.1,7.9,30.17,West,281,0.0,1.0,61,0.00,,---,0.00,VWS V14.01,2013-12-31 02:10:00,
2013-12-30 21:15:00,18.9,7.7,30.17,NW,310,2.0,5.0,61,0.00,,---,0.00,VWS V14.01,2013-12-31 02:15:00,
2013-12-30 21:21:00,18.8,7.6,30.18,WNW,286,1.0,3.0,61,0.00,,---,0.00,VWS V14.01,2013-12-31 02:21:00,
2013-12-30 21:26:00,18.6,7.0,30.18,WNW,302,3.0,3.0,60,0.00,,---,0.00,VWS V14.01,2013-12-31 02:26:00,
2013-12-30 21:31:00,18.6,7.4,30.18,NNW,339,1.0,4.0,61,0.00,,---,0.00,VWS V14.01,2013-12-31 02:31:00,
2013-12-30 21:36:00,18.4,6.8,30.18,WNW,300,0.0,0.0,60,0.00,,---,0.00,VWS V14.01,2013-12-31 02:36:00,
2013-12-30 21:42:00,18.3,7.1,30.18,WNW,293,2.0,2.0,61,0.00,,---,0.00,VWS V14.01,2013-12-31 02:42:00,
2013-12-30 21:47:00,18.3,7.1,30.18,WNW,293,1.0,2.0,61,0.00,,---,0.00,VWS V14.01,2013-12-31 02:47:00,
2013-12-30 21:52:00,18.1,7.3,30.18,WNW,293,0.0,0.0,62,0.00,,---,0.00,VWS V14.01,2013-12-31 02:52:00,
2013-12-30 21:57:00,18.0,7.2,30.18,WNW,299,2.0,3.0,62,0.00,,---,0.00,VWS V14.01,2013-12-31 02:57:00,
2013-12-30 22:02:00,17.8,7.0,30.18,WNW,301,0.0,0.0,62,0.00,,---,0.00,VWS V14.01,2013-12-31 03:02:00,
2013-12-30 22:07:00,17.8,7.0,30.19,North,9,0.0,0.0,62,0.00,,---,0.00,VWS V14.01,2013-12-31 03:07:00,
2013-12-30 22:12:00,17.7,7.3,30.19,North,9,0.0,0.0,63,0.00,,---,0.00,VWS V14.01,2013-12-31 03:12:00,
2013-12-30 22:18:00,17.5,7.1,30.19,NW,323,0.0,1.0,63,0.00,,---,0.00,VWS V14.01,2013-12-31 03:18:00,
2013-12-30 22:24:00,17.3,6.9,30.19,NW,323,0.0,0.0,63,0.00,,---,0.00,VWS V14.01,2013-12-31 03:24:00,
2013-12-30 22:29:00,17.3,6.9,30.19,NW,323,0.0,0.0,63,0.00,,---,0.00,VWS V14.01,2013-12-31 03:29:00,
2013-12-30 22:34:00,17.2,6.8,30.18,NW,319,0.0,0.0,63,0.00,,---,0.00,VWS V14.01,2013-12-31 03:34:00,
2013-12-30 22:40:00,17.0,6.6,30.19,NW,319,0.0,0.0,63,0.00,,---,0.00,VWS V14.01,2013-12-31 03:40:00,
2013-12-30 22:45:00,16.9,6.8,30.18,NW,319,0.0,0.0,64,0.00,,---,0.00,VWS V14.01,2013-12-31 03:45:00,
2013-12-30 22:50:00,16.7,6.3,30.19,NW,319,0.0,0.0,63,0.00,,---,0.00,VWS V14.01,2013-12-31 03:50:00,
2013-12-30 22:55:00,16.7,6.7,30.19,NW,319,0.0,2.0,64,0.00,,---,0.00,VWS V14.01,2013-12-31 03:55:00,
2013-12-30 23:01:00,16.5,6.1,30.19,NW,319,0.0,0.0,63,0.00,,---,0.00,VWS V14.01,2013-12-31 04:01:00,
2013-12-30 23:06:00,16.5,6.5,30.19,NW,319,0.0,0.0,64,0.00,,---,0.00,VWS V14.01,2013-12-31 04:06:00,
2013-12-30 23:11:00,16.4,6.7,30.18,NW,319,0.0,0.0,65,0.00,,---,0.00,VWS V14.01,2013-12-31 04:11:00,
2013-12-30 23:16:00,16.4,6.7,30.18,NW,319,0.0,0.0,65,0.00,,---,0.00,VWS V14.01,2013-12-31 04:16:00,
2013-12-30 23:21:00,16.2,6.5,30.18,NW,319,0.0,0.0,65,0.00,,---,0.00,VWS V14.01,2013-12-31 04:21:00,
2013-12-30 23:26:00,16.1,6.8,30.18,NW,319,0.0,0.0,66,0.00,,---,0.00,VWS V14.01,2013-12-31 04:26:00,
2013-12-30 23:31:00,15.9,6.6,30.18,NW,319,0.0,0.0,66,0.00,,---,0.00,VWS V14.01,2013-12-31 04:31:00,
2013-12-30 23:37:00,15.7,6.7,30.18,NW,319,0.0,0.0,67,0.00,,---,0.00,VWS V14.01,2013-12-31 04:37:00,
2013-12-30 23:43:00,15.6,6.9,30.17,NW,319,0.0,0.0,68,0.00,,---,0.00,VWS V14.01,2013-12-31 04:43:00,
2013-12-30 23:47:00,15.6,6.9,30.17,NW,319,0.0,0.0,68,0.00,,---,0.00,VWS V14.01,2013-12-31 04:47:00,
2013-12-30 23:52:00,15.4,6.7,30.17,NW,319,0.0,0.0,68,0.00,,---,0.00,VWS V14.01,2013-12-31 04:52:00,
2013-12-30 23:58:00,15.2,6.6,30.17,NW,319,0.0,0.0,68,0.00,,---,0.00,VWS V14.01,2013-12-31 04:58:00,